Time;durP1;ratioP1;P1;durP2;ratioP2;P2;SDS_P1;SDS_P2;PMS_P1;PMS_P2;Temp;Humidity;BMP_temperature;BMP_pressure;BME280_temperature;BME280_humidity;BME280_pressure;Samples;Min_cycle;Max_cycle;Signal;HPM_P1;HPM_P2
2021/09/29 00:00:12;;;;;;;2.13;1.35;;;;;;;27.81;35.07;96826.19;5003121;28;20040;-32
2021/09/29 00:02:37;;;;;;;3.78;1.30;;;;;;;27.80;35.16;96813.94;5003214;28;20049;-34
2021/09/29 00:05:03;;;;;;;4.88;1.38;;;;;;;27.81;34.97;96817.41;5011899;28;20025;-37
2021/09/29 00:07:28;;;;;;;2.75;1.15;;;;;;;27.81;35.05;96825.31;5009297;28;20051;-29
2021/09/29 00:09:54;;;;;;;1.98;1.05;;;;;;;27.80;34.93;96829.72;5013289;28;20029;-32
2021/09/29 00:12:21;;;;;;;1.95;1.10;;;;;;;27.80;35.05;96827.09;5012307;28;21873;-38
2021/09/29 00:14:47;;;;;;;1.88;1.23;;;;;;;27.81;35.06;96833.22;5012271;28;20630;-33
2021/09/29 00:17:12;;;;;;;1.08;0.98;;;;;;;27.80;35.02;96821.00;4998172;28;20072;-34
2021/09/29 00:19:37;;;;;;;2.33;1.23;;;;;;;27.80;35.08;96824.47;5002783;28;20038;-33
2021/09/29 00:22:03;;;;;;;2.08;1.20;;;;;;;27.79;35.02;96822.78;5001958;28;20029;-36
2021/09/29 00:24:28;;;;;;;1.98;1.35;;;;;;;27.79;35.02;96825.41;5005494;28;20036;-30
2021/09/29 00:26:54;;;;;;;2.60;1.38;;;;;;;27.80;34.85;96823.63;5009039;28;20033;-32
2021/09/29 00:29:19;;;;;;;2.40;1.25;;;;;;;27.79;35.25;96820.13;5006736;28;20025;-33
2021/09/29 00:31:44;;;;;;;1.38;1.15;;;;;;;27.79;35.03;96814.88;5000945;28;20025;-31
2021/09/29 00:34:12;;;;;;;2.60;1.58;;;;;;;27.78;34.92;96827.22;5004086;28;20041;-36
2021/09/29 00:36:42;;;;;;;2.30;1.35;;;;;;;27.79;35.04;96822.78;5003049;28;20022;-33
2021/09/29 00:39:08;;;;;;;3.63;1.27;;;;;;;27.78;35.03;96819.31;5005706;28;20567;-32
2021/09/29 00:41:33;;;;;;;3.08;1.17;;;;;;;27.79;35.07;96828.03;5008041;28;20033;-34
2021/09/29 00:43:59;;;;;;;2.63;0.90;;;;;;;27.78;35.14;96821.94;5007211;28;20021;-35
2021/09/29 00:46:25;;;;;;;1.90;1.20;;;;;;;27.79;34.96;96822.78;5003843;28;20018;-30
2021/09/29 00:48:50;;;;;;;2.13;1.20;;;;;;;27.78;35.03;96821.09;5002751;28;20040;-35
2021/09/29 00:51:15;;;;;;;2.13;1.33;;;;;;;27.78;34.92;96821.94;5004360;28;20451;-32
2021/09/29 00:53:41;;;;;;;3.50;1.50;;;;;;;27.78;35.07;96816.69;5003411;28;20688;-36
2021/09/29 00:56:07;;;;;;;1.85;1.10;;;;;;;27.79;35.09;96814.88;5000029;28;20040;-34
2021/09/29 00:58:32;;;;;;;1.17;0.93;;;;;;;27.78;34.97;96810.56;5002483;28;20033;-33
2021/09/29 01:00:58;;;;;;;1.20;1.10;;;;;;;27.78;35.01;96815.81;5003156;28;20131;-29
2021/09/29 01:03:23;;;;;;;1.52;0.95;;;;;;;27.77;35.09;96814.13;5002438;28;20064;-31
2021/09/29 01:05:49;;;;;;;1.73;1.10;;;;;;;27.78;35.04;96821.09;5010935;28;20025;-31
2021/09/29 01:08:16;;;;;;;3.03;1.20;;;;;;;27.78;34.97;96810.56;4981842;28;20484;-36
2021/09/29 01:11:00;;;;;;;1.88;1.20;;;;;;;27.78;34.98;96816.69;4988402;28;20025;-32
2021/09/29 01:13:30;;;;;;;1.27;0.98;;;;;;;27.78;35.03;96821.09;5001402;28;20037;-37
2021/09/29 01:16:01;;;;;;;1.40;0.82;;;;;;;27.78;34.90;96810.56;5008709;28;20112;-31
2021/09/29 01:18:26;;;;;;;1.97;1.20;;;;;;;27.77;35.02;96814.13;4985084;28;20030;-34
2021/09/29 01:21:05;;;;;;;2.05;1.30;;;;;;;27.77;35.05;96814.13;4982770;28;20079;-36
2021/09/29 01:23:53;;;;;;;3.55;1.20;;;;;;;27.76;35.01;96813.28;4998829;28;20554;-30
2021/09/29 01:26:25;;;;;;;1.30;1.00;;;;;;;27.76;35.05;96818.53;4998508;28;20131;-31
2021/09/29 01:28:52;;;;;;;2.10;1.27;;;;;;;27.75;35.13;96818.63;5001875;28;20064;-32
2021/09/29 01:31:18;;;;;;;1.80;1.10;;;;;;;27.76;35.10;96815.06;5003008;28;20026;-34
2021/09/29 01:33:44;;;;;;;1.90;1.08;;;;;;;27.75;34.99;96802.84;4998467;28;20018;-35
2021/09/29 01:36:09;;;;;;;2.20;0.93;;;;;;;27.74;34.99;96803.78;4989397;28;20018;-32
2021/09/29 01:38:35;;;;;;;1.45;1.05;;;;;;;27.75;35.21;96802.84;5000674;28;20025;-31
2021/09/29 01:41:00;;;;;;;1.55;1.20;;;;;;;27.75;34.87;96801.06;5003492;28;20514;-34
2021/09/29 01:43:28;;;;;;;1.38;1.10;;;;;;;27.74;35.06;96804.66;5001827;28;20094;-31
2021/09/29 01:45:54;;;;;;;1.38;1.20;;;;;;;27.75;35.11;96794.94;4999525;28;20032;-32
2021/09/29 01:48:19;;;;;;;2.03;1.17;;;;;;;27.75;34.95;96802.84;5001045;28;20033;-37
2021/09/29 01:50:45;;;;;;;2.42;1.20;;;;;;;27.76;35.17;96799.25;5003961;28;20741;-37
2021/09/29 01:53:10;;;;;;;1.77;1.00;;;;;;;27.73;34.98;96802.94;5013243;28;20029;-33
2021/09/29 01:55:35;;;;;;;2.08;1.30;;;;;;;27.75;35.17;96810.72;4996405;28;20041;-38
2021/09/29 01:58:01;;;;;;;1.98;1.30;;;;;;;27.75;35.10;96816.00;4980570;28;20068;-37
2021/09/29 02:00:26;;;;;;;1.00;0.80;;;;;;;27.74;35.10;96814.31;4999260;28;20590;-34
2021/09/29 02:02:55;;;;;;;1.88;1.10;;;;;;;27.75;35.12;96810.72;4998718;28;20040;-32
2021/09/29 02:05:31;;;;;;;1.92;1.20;;;;;;;27.74;35.17;96803.78;5003767;28;20476;-34
2021/09/29 02:07:58;;;;;;;1.40;0.93;;;;;;;27.75;35.00;96810.72;4996550;28;20030;-32
2021/09/29 02:10:23;;;;;;;2.92;1.27;;;;;;;27.75;35.16;96810.72;5000074;28;20029;-32
2021/09/29 02:12:48;;;;;;;0.98;0.90;;;;;;;27.75;35.06;96813.38;4998172;28;20373;-31
2021/09/29 02:15:14;;;;;;;1.98;0.90;;;;;;;27.73;34.97;96808.19;5000966;28;20624;-36
2021/09/29 02:17:39;;;;;;;1.10;1.00;;;;;;;27.74;35.12;96804.66;5001473;28;20056;-31
2021/09/29 02:20:05;;;;;;;1.63;0.93;;;;;;;27.74;35.08;96804.66;4997727;28;20766;-34
2021/09/29 02:22:31;;;;;;;1.50;0.95;;;;;;;27.74;35.11;96817.81;5000976;28;20107;-32
2021/09/29 02:24:56;;;;;;;2.05;1.10;;;;;;;27.75;35.14;96818.63;4996727;28;20535;-31
2021/09/29 02:27:21;;;;;;;1.77;0.90;;;;;;;27.74;35.07;96823.06;5000646;28;20476;-31
2021/09/29 02:29:47;;;;;;;2.05;1.08;;;;;;;27.74;35.06;96820.44;5000035;28;20045;-32
2021/09/29 02:32:12;;;;;;;1.27;0.95;;;;;;;27.75;35.24;96826.53;5002184;28;20029;-29
2021/09/29 02:34:38;;;;;;;1.35;1.00;;;;;;;27.74;35.08;96825.72;4998640;28;20524;-31
2021/09/29 02:37:03;;;;;;;1.98;0.90;;;;;;;27.73;35.11;96818.72;4997459;28;20059;-29
2021/09/29 02:39:29;;;;;;;1.98;1.10;;;;;;;27.74;35.14;96820.44;5008133;28;20041;-33
2021/09/29 02:41:54;;;;;;;1.52;1.00;;;;;;;27.74;35.04;96824.84;5009611;28;20030;-36
2021/09/29 02:44:20;;;;;;;1.27;0.88;;;;;;;27.74;35.14;96820.44;4999839;28;20041;-32
2021/09/29 02:46:45;;;;;;;1.33;0.85;;;;;;;27.73;35.15;96825.78;5003986;28;20021;-34
2021/09/29 02:49:11;;;;;;;1.63;0.95;;;;;;;27.73;34.97;96831.06;4998248;28;20029;-35
2021/09/29 02:51:36;;;;;;;1.35;0.90;;;;;;;27.73;35.19;96828.44;4996549;28;20029;-31
2021/09/29 02:54:02;;;;;;;1.52;1.00;;;;;;;27.73;34.98;96841.59;5003560;28;20033;-36
2021/09/29 02:56:28;;;;;;;1.73;1.00;;;;;;;27.72;35.04;96834.63;4999483;28;20110;-30
2021/09/29 02:58:54;;;;;;;1.48;1.13;;;;;;;27.74;35.04;96845.91;4997785;28;20560;-36
2021/09/29 03:01:19;;;;;;;1.75;1.05;;;;;;;27.71;35.03;96849.56;5007757;28;20033;-34
2021/09/29 03:03:45;;;;;;;1.23;0.90;;;;;;;27.72;35.16;96853.91;5002248;28;20025;-36
2021/09/29 03:06:10;;;;;;;1.15;1.02;;;;;;;27.71;34.91;96846.94;5001263;28;20796;-35
2021/09/29 03:08:36;;;;;;;1.70;0.90;;;;;;;27.72;35.23;96850.44;4998624;28;20532;-36
2021/09/29 03:11:01;;;;;;;1.02;0.85;;;;;;;27.72;35.17;96853.06;5001515;28;20047;-29
2021/09/29 03:13:26;;;;;;;1.35;0.88;;;;;;;27.72;35.21;96848.63;5004636;28;20076;-34
2021/09/29 03:15:52;;;;;;;1.48;1.05;;;;;;;27.72;35.11;96847.81;5007537;28;20033;-32
2021/09/29 03:18:17;;;;;;;2.08;0.85;;;;;;;27.71;35.24;96851.34;4999001;28;20048;-28
2021/09/29 03:20:43;;;;;;;1.42;0.80;;;;;;;27.71;35.10;96851.34;4997858;28;20064;-30
2021/09/29 03:23:08;;;;;;;0.80;0.80;;;;;;;27.71;35.22;96846.09;5004056;28;20033;-30
2021/09/29 03:25:34;;;;;;;1.10;1.00;;;;;;;27.72;35.30;96853.06;4992559;28;20087;-32
2021/09/29 03:27:59;;;;;;;0.88;0.85;;;;;;;27.70;35.11;96850.53;5000091;28;20033;-33
2021/09/29 03:30:25;;;;;;;1.50;0.88;;;;;;;27.70;35.17;96845.25;5001677;28;20037;-32
2021/09/29 03:32:50;;;;;;;1.05;0.98;;;;;;;27.70;35.18;96849.66;4996501;28;20030;-34
2021/09/29 03:35:16;;;;;;;1.33;0.93;;;;;;;27.70;35.14;96849.66;5003785;28;20529;-36
2021/09/29 03:37:41;;;;;;;2.00;0.90;;;;;;;27.64;35.28;96849.09;5004829;28;20492;-31
2021/09/29 03:40:08;;;;;;;1.50;0.95;;;;;;;27.70;35.24;96862.81;5002303;28;20568;-29
2021/09/29 03:42:33;;;;;;;1.48;1.10;;;;;;;27.70;35.26;96868.97;4998008;28;20232;-30
2021/09/29 03:44:59;;;;;;;2.30;1.00;;;;;;;27.70;35.16;96865.47;5004403;28;20589;-33
2021/09/29 03:47:24;;;;;;;0.90;0.85;;;;;;;27.70;35.21;96870.72;5000521;28;20040;-31
2021/09/29 03:49:50;;;;;;;0.88;0.80;;;;;;;27.69;35.05;96869.03;5000179;28;20036;-28
2021/09/29 03:52:15;;;;;;;1.20;0.90;;;;;;;27.70;35.24;96876.00;5009041;28;20029;-32
2021/09/29 03:54:40;;;;;;;2.17;0.98;;;;;;;27.69;35.15;96874.31;4999080;28;20025;-32
2021/09/29 03:57:06;;;;;;;1.25;1.08;;;;;;;27.70;35.26;96876.00;4997648;28;20063;-30
2021/09/29 03:59:31;;;;;;;1.05;0.95;;;;;;;27.69;35.22;96876.94;4999690;28;20378;-33
2021/09/29 04:01:57;;;;;;;1.75;1.10;;;;;;;27.69;35.18;96877.75;5000618;28;20026;-33
2021/09/29 04:04:22;;;;;;;1.95;1.00;;;;;;;27.69;35.18;96879.56;4998303;28;20223;-34
2021/09/29 04:06:48;;;;;;;1.55;1.00;;;;;;;27.70;35.23;96876.00;4997444;28;20030;-31
2021/09/29 04:09:13;;;;;;;1.58;0.90;;;;;;;27.68;35.17;96877.88;4999507;28;20381;-35
2021/09/29 04:11:39;;;;;;;1.30;0.95;;;;;;;27.69;35.21;96882.19;4999369;28;20057;-36
2021/09/29 04:14:06;;;;;;;1.20;1.10;;;;;;;27.68;35.38;96873.44;4994208;28;20033;-28
2021/09/29 04:16:31;;;;;;;0.80;0.80;;;;;;;27.69;35.25;96884.84;5000755;28;20035;-31
2021/09/29 04:18:57;;;;;;;1.23;0.90;;;;;;;27.68;35.17;96883.97;5000934;28;20590;-33
2021/09/29 04:21:22;;;;;;;0.95;0.82;;;;;;;27.67;35.32;96876.16;4998817;28;20471;-32
2021/09/29 04:23:48;;;;;;;1.58;0.70;;;;;;;27.68;35.31;96883.16;5002820;28;20034;-33
2021/09/29 04:26:13;;;;;;;1.30;0.98;;;;;;;27.68;35.28;96888.41;4998049;28;20029;-32
2021/09/29 04:28:38;;;;;;;1.40;0.90;;;;;;;27.69;35.22;96887.47;5000804;28;20084;-35
2021/09/29 04:31:04;;;;;;;1.27;0.85;;;;;;;27.67;35.20;96887.56;5001657;28;20033;-30
2021/09/29 04:33:29;;;;;;;1.15;0.85;;;;;;;27.68;35.08;96883.16;5003936;28;20740;-33
2021/09/29 04:35:55;;;;;;;0.80;0.70;;;;;;;27.68;35.25;96888.41;5002422;28;20066;-36
2021/09/29 04:38:21;;;;;;;1.10;0.77;;;;;;;27.68;35.21;96888.41;5001193;28;20410;-34
2021/09/29 04:40:46;;;;;;;3.88;1.00;;;;;;;27.68;35.14;96889.25;5002935;28;20030;-34
2021/09/29 04:43:12;;;;;;;1.85;0.98;;;;;;;27.67;35.31;96881.44;5006125;28;20677;-33
2021/09/29 04:45:38;;;;;;;0.95;0.90;;;;;;;27.68;35.35;96897.13;5011476;28;20064;-32
2021/09/29 04:48:04;;;;;;;1.50;0.80;;;;;;;27.65;35.22;96892.91;5005365;28;20038;-33
2021/09/29 04:50:29;;;;;;;1.67;0.93;;;;;;;27.68;35.24;96901.56;5000789;28;20029;-31
2021/09/29 04:52:55;;;;;;;1.10;0.80;;;;;;;27.67;35.31;96900.72;5001909;28;20148;-34
2021/09/29 04:55:20;;;;;;;1.20;0.70;;;;;;;27.63;35.32;96894.78;5000623;28;20112;-33
2021/09/29 04:57:46;;;;;;;2.50;1.00;;;;;;;27.67;35.35;96894.59;4999607;28;20554;-30
2021/09/29 05:00:12;;;;;;;0.90;0.90;;;;;;;27.67;35.19;96902.50;5002327;28;20885;-32
2021/09/29 05:02:38;;;;;;;1.95;0.82;;;;;;;27.68;35.33;96904.22;5000128;28;20156;-31
2021/09/29 05:05:03;;;;;;;0.90;0.70;;;;;;;27.67;35.21;96900.72;5000716;28;20448;-35
2021/09/29 05:07:29;;;;;;;0.95;0.70;;;;;;;27.65;35.24;96898.16;5001916;28;20221;-30
2021/09/29 05:09:55;;;;;;;1.50;0.98;;;;;;;27.65;35.26;96900.81;5013690;28;20048;-37
2021/09/29 05:12:30;;;;;;;1.15;0.70;;;;;;;27.65;35.27;96900.81;4997719;28;20116;-34
2021/09/29 05:14:56;;;;;;;1.30;0.85;;;;;;;27.65;35.24;96908.69;5001685;28;20088;-35
2021/09/29 05:17:21;;;;;;;0.70;0.65;;;;;;;27.65;35.17;96900.81;4995673;28;20033;-30
2021/09/29 05:19:47;;;;;;;0.80;0.63;;;;;;;27.67;35.36;96907.75;4982034;28;20033;-34
2021/09/29 05:22:12;;;;;;;0.73;0.70;;;;;;;27.64;35.28;96901.75;5002560;28;20039;-33
2021/09/29 05:24:38;;;;;;;1.15;0.70;;;;;;;27.67;35.37;96907.75;4995629;28;20038;-33
2021/09/29 05:27:04;;;;;;;0.80;0.80;;;;;;;27.65;35.28;96910.50;4999794;28;20026;-31
2021/09/29 05:29:30;;;;;;;0.88;0.70;;;;;;;27.64;35.25;96904.38;5001431;28;20033;-33
2021/09/29 05:31:55;;;;;;;1.63;0.93;;;;;;;27.65;35.26;96908.69;4984563;28;20045;-33
2021/09/29 05:34:24;;;;;;;2.10;0.90;;;;;;;27.64;35.19;96914.91;4996663;28;20102;-32
2021/09/29 05:36:49;;;;;;;1.58;0.88;;;;;;;27.63;35.40;96907.97;5000806;28;20120;-34
2021/09/29 05:39:15;;;;;;;0.57;0.57;;;;;;;27.63;35.32;96913.22;5001316;28;20532;-35
2021/09/29 05:41:40;;;;;;;1.42;0.73;;;;;;;27.63;35.31;96913.22;4998322;28;20389;-29
2021/09/29 05:44:05;;;;;;;3.45;0.80;;;;;;;27.64;35.36;96914.06;5000576;28;20075;-35
2021/09/29 05:46:31;;;;;;;0.80;0.60;;;;;;;27.64;35.24;96925.44;5006933;28;20034;-28
2021/09/29 05:48:57;;;;;;;0.75;0.70;;;;;;;27.63;35.28;96915.84;5003124;28;20029;-38
2021/09/29 05:51:22;;;;;;;0.88;0.63;;;;;;;27.63;35.36;96920.25;5001514;28;20096;-31
2021/09/29 05:53:47;;;;;;;0.57;0.50;;;;;;;27.63;35.30;96923.75;5000628;28;20163;-33
2021/09/29 05:56:14;;;;;;;0.82;0.77;;;;;;;27.62;35.24;96927.31;4998905;28;20042;-32
2021/09/29 05:58:40;;;;;;;0.82;0.75;;;;;;;27.61;35.34;96928.25;5004106;28;20468;-31
2021/09/29 06:01:06;;;;;;;1.23;0.68;;;;;;;27.63;35.21;96928.16;5005616;28;20022;-36
2021/09/29 06:03:31;;;;;;;0.40;0.40;;;;;;;27.63;35.43;96934.28;5007369;28;20044;-34
2021/09/29 06:05:57;;;;;;;2.13;0.80;;;;;;;27.62;35.23;96937.84;5011877;28;20586;-30
2021/09/29 06:08:22;;;;;;;0.93;0.60;;;;;;;27.62;35.43;96932.56;5007832;28;20045;-34
2021/09/29 06:10:48;;;;;;;0.75;0.70;;;;;;;27.62;35.26;96937.84;5004583;28;20416;-30
2021/09/29 06:13:14;;;;;;;0.75;0.73;;;;;;;27.62;35.40;96932.56;5001147;28;20041;-29
2021/09/29 06:15:44;;;;;;;1.48;0.70;;;;;;;27.61;35.28;96933.50;4999378;28;20039;-33
2021/09/29 06:18:15;;;;;;;0.68;0.60;;;;;;;27.61;35.22;96936.16;4999332;28;20673;-31
2021/09/29 06:20:45;;;;;;;1.10;1.00;;;;;;;27.61;35.31;96941.41;4998862;28;20087;-31
2021/09/29 06:23:11;;;;;;;3.13;1.00;;;;;;;27.62;35.34;96951.00;4999806;28;20042;-34
2021/09/29 06:25:36;;;;;;;1.60;0.90;;;;;;;27.62;35.33;96948.38;4993859;28;20033;-36
2021/09/29 06:28:02;;;;;;;3.17;1.20;;;;;;;27.62;35.46;96951.00;4994915;28;20025;-31
2021/09/29 06:30:27;;;;;;;4.35;1.20;;;;;;;27.63;35.30;96950.09;4996306;28;20030;-33
2021/09/29 06:32:53;;;;;;;10.55;2.08;;;;;;;27.63;35.34;96952.72;4996698;28;20046;-30
2021/09/29 06:35:18;;;;;;;9.40;1.98;;;;;;;27.62;35.40;96950.16;5003324;28;20094;-36
2021/09/29 06:37:44;;;;;;;5.82;1.90;;;;;;;27.63;35.48;96954.50;4997184;28;20380;-36
2021/09/29 06:40:17;;;;;;;4.93;2.00;;;;;;;27.64;35.37;96953.53;5002608;28;20488;-32
2021/09/29 06:42:42;;;;;;;5.30;2.15;;;;;;;27.64;35.45;96956.19;4999757;28;20080;-34
2021/09/29 06:45:08;;;;;;;8.57;2.55;;;;;;;27.64;35.43;96961.44;4995780;28;20373;-34
2021/09/29 06:47:34;;;;;;;8.52;3.03;;;;;;;27.65;35.49;96958.72;4987353;28;20049;-31
2021/09/29 06:50:00;;;;;;;8.63;2.88;;;;;;;27.64;35.06;96962.31;4993036;28;20889;-33
2021/09/29 06:52:25;;;;;;;14.10;3.00;;;;;;;27.65;34.62;96963.16;4997141;28;20487;-30
2021/09/29 06:54:50;;;;;;;7.75;2.95;;;;;;;27.64;34.13;96958.81;4998381;28;20036;-28
2021/09/29 06:57:16;;;;;;;9.80;2.90;;;;;;;27.63;33.81;96960.63;4994883;28;20131;-35
2021/09/29 06:59:43;;;;;;;6.47;3.05;;;;;;;27.62;33.70;96963.34;4997842;28;20033;-36
2021/09/29 07:02:08;;;;;;;7.15;3.05;;;;;;;27.61;33.46;96959.00;4997950;28;20061;-32
2021/09/29 07:04:33;;;;;;;4.95;2.78;;;;;;;27.58;33.52;96952.06;5001782;28;20550;-29
2021/09/29 07:06:59;;;;;;;11.20;3.15;;;;;;;27.55;33.49;96947.00;4997305;28;20037;-31
2021/09/29 07:09:24;;;;;;;7.03;2.95;;;;;;;27.55;33.31;96952.28;4996799;28;20026;-30
2021/09/29 07:11:50;;;;;;;6.85;2.65;;;;;;;27.56;33.33;96956.59;4999737;28;20085;-31
2021/09/29 07:14:15;;;;;;;6.95;2.85;;;;;;;27.52;33.41;96952.44;5002592;28;20029;-34
2021/09/29 07:16:41;;;;;;;4.85;2.13;;;;;;;27.54;33.30;96955.84;4998624;28;20399;-32
2021/09/29 07:19:06;;;;;;;7.13;2.55;;;;;;;27.53;33.16;96959.41;4999264;28;20029;-32
2021/09/29 07:21:31;;;;;;;6.57;2.17;;;;;;;27.51;33.20;96961.28;4997412;28;20457;-35
2021/09/29 07:23:57;;;;;;;4.97;2.10;;;;;;;27.49;33.10;96957.88;5000276;28;20083;-30
2021/09/29 07:26:23;;;;;;;4.78;2.00;;;;;;;27.49;33.12;96957.88;4995075;28;20554;-29
2021/09/29 07:28:49;;;;;;;5.60;2.45;;;;;;;27.47;32.92;96954.50;5003422;28;20029;-30
2021/09/29 07:31:15;;;;;;;6.65;2.40;;;;;;;27.47;33.00;96970.28;5000748;28;21548;-33
2021/09/29 07:33:40;;;;;;;6.38;2.25;;;;;;;27.46;33.06;96965.97;4998544;28;20038;-31
2021/09/29 07:36:06;;;;;;;6.78;2.03;;;;;;;27.45;32.99;96966.88;4998651;28;20040;-36
2021/09/29 07:38:32;;;;;;;6.70;2.10;;;;;;;27.45;32.99;96970.38;4997537;28;20476;-29
2021/09/29 07:40:57;;;;;;;7.47;2.47;;;;;;;27.45;33.11;96961.63;5001383;28;20543;-39
2021/09/29 07:43:22;;;;;;;8.68;2.20;;;;;;;27.42;33.05;96959.19;4997425;28;20493;-32
2021/09/29 07:45:48;;;;;;;4.20;1.98;;;;;;;27.44;32.95;96959.94;4981383;28;20026;-32
2021/09/29 07:48:13;;;;;;;8.10;2.30;;;;;;;27.45;32.93;96961.63;4998537;28;20025;-31
2021/09/29 07:50:39;;;;;;;5.40;1.85;;;;;;;27.45;33.13;96964.25;5000315;28;20038;-36
2021/09/29 07:53:04;;;;;;;5.68;2.10;;;;;;;27.45;33.15;96956.34;5005671;28;20457;-34
2021/09/29 07:55:29;;;;;;;6.00;1.90;;;;;;;27.46;32.95;96952.81;4996512;28;20339;-31
2021/09/29 07:57:55;;;;;;;5.88;1.98;;;;;;;27.44;33.01;96952.91;5002715;28;21081;-35
2021/09/29 08:00:20;;;;;;;4.13;1.98;;;;;;;27.45;32.93;96954.59;5001797;28;20044;-31
2021/09/29 08:02:46;;;;;;;6.07;2.00;;;;;;;27.46;32.93;96952.81;5001727;28;20523;-32
2021/09/29 08:05:13;;;;;;;4.70;1.58;;;;;;;27.47;32.97;96954.50;5002816;28;20476;-32
2021/09/29 08:07:38;;;;;;;6.95;1.58;;;;;;;27.48;32.79;96950.94;4992217;28;20137;-33
2021/09/29 08:10:07;;;;;;;4.05;1.80;;;;;;;27.48;32.82;96956.19;5001660;28;20034;-31
2021/09/29 08:12:33;;;;;;;3.47;1.42;;;;;;;27.48;32.79;96954.41;5002083;28;20040;-30
2021/09/29 08:14:58;;;;;;;6.03;1.77;;;;;;;27.48;32.47;96953.56;5003625;28;20021;-34
2021/09/29 08:17:23;;;;;;;7.55;1.88;;;;;;;27.46;31.41;96950.19;5009541;28;20067;-30
2021/09/29 08:19:49;;;;;;;6.43;1.60;;;;;;;27.41;30.81;96949.59;5004302;28;20021;-31
2021/09/29 08:22:14;;;;;;;4.35;2.03;;;;;;;27.35;30.85;96950.78;5000857;28;20026;-34
2021/09/29 08:27:33;;;;;;;5.50;1.50;;;;;;;27.20;30.73;96957.78;4998207;28;20092;-30
2021/09/29 08:30:25;;;;;;;5.82;1.52;;;;;;;27.12;30.88;96966.94;5002241;28;20045;-31
2021/09/29 08:38:25;;;;;;;5.22;1.13;;;;;;;26.85;30.29;96959.59;5012602;28;20088;-30
2021/09/29 08:46:12;;;;;;;3.75;1.10;;;;;;;26.59;30.62;96964.50;4992448;28;20096;-33
2021/09/29 08:48:53;;;;;;;3.67;1.25;;;;;;;26.56;30.86;96959.44;4988699;28;20635;-31
2021/09/29 08:54:09;;;;;;;4.53;1.50;;;;;;;26.58;31.06;96962.81;5006250;28;20063;-31
2021/09/29 09:18:15;;;;;;;10.90;2.25;;;;;;;26.74;29.99;96956.75;5009330;28;20029;-34
2021/09/29 09:20:44;;;;;;;6.28;1.80;;;;;;;26.75;30.11;96953.16;5010285;28;20033;-29
2021/09/29 09:23:10;;;;;;;5.70;1.58;;;;;;;26.76;30.13;96954.84;5009767;28;20613;-35
2021/09/29 09:25:40;;;;;;;5.07;1.77;;;;;;;26.78;30.10;96953.00;5010830;28;20026;-33
2021/09/29 09:28:09;;;;;;;7.90;1.67;;;;;;;26.79;30.11;96945.94;5006528;28;20033;-33
2021/09/29 09:30:36;;;;;;;4.07;1.58;;;;;;;26.81;29.70;96947.56;5009874;28;20608;-31
2021/09/29 09:33:02;;;;;;;7.15;1.48;;;;;;;26.81;29.71;96937.03;5005877;28;20032;-32
2021/09/29 09:35:39;;;;;;;3.35;1.20;;;;;;;26.81;29.62;96944.09;5008313;28;20083;-36
2021/09/29 09:38:12;;;;;;;4.45;1.50;;;;;;;26.82;29.64;96945.78;5016364;28;20138;-33
2021/09/29 09:40:37;;;;;;;5.13;1.40;;;;;;;26.83;29.72;96942.22;5009986;28;20026;-32
2021/09/29 09:43:03;;;;;;;7.25;1.50;;;;;;;26.84;29.59;96939.50;5005531;28;20807;-34
2021/09/29 09:45:43;;;;;;;4.90;1.55;;;;;;;26.84;29.60;96931.63;5008951;28;20116;-36
2021/09/29 09:48:23;;;;;;;7.10;1.23;;;;;;;26.85;29.48;96938.56;5004832;28;20021;-35
2021/09/29 09:50:56;;;;;;;4.93;1.38;;;;;;;26.86;29.42;96937.63;5005332;28;20111;-32
2021/09/29 09:53:21;;;;;;;4.53;1.40;;;;;;;26.88;29.49;96930.53;5009600;28;20572;-33
2021/09/29 09:55:46;;;;;;;3.75;1.35;;;;;;;26.88;29.48;96922.63;5006900;28;20041;-34
2021/09/29 09:58:12;;;;;;;8.20;1.52;;;;;;;26.91;29.41;96921.63;5007343;28;20052;-30
2021/09/29 10:00:37;;;;;;;4.38;1.40;;;;;;;26.93;29.42;96925.00;5004869;28;20095;-32
2021/09/29 10:03:03;;;;;;;7.63;1.33;;;;;;;26.95;29.42;96919.69;5005376;28;20029;-30
2021/09/29 10:05:30;;;;;;;5.47;1.38;;;;;;;26.94;29.46;96900.44;5008890;28;20374;-33
2021/09/29 10:07:56;;;;;;;9.00;1.35;;;;;;;26.97;29.35;96909.94;5002049;28;20057;-32
2021/09/29 10:27:09;;;;;;;2.20;1.00;;;;;;;26.99;29.11;96915.94;5007401;28;20115;-32
2021/09/29 10:29:40;;;;;;;4.28;1.10;;;;;;;26.98;28.89;96922.16;5009135;28;20036;-36
2021/09/29 10:32:31;;;;;;;4.93;1.30;;;;;;;26.97;29.09;96913.41;5005831;28;20112;-36
2021/09/29 10:35:07;;;;;;;3.67;1.30;;;;;;;26.99;29.47;96914.19;4999063;28;20041;-31
2021/09/29 10:43:05;;;;;;;7.68;1.30;;;;;;;27.04;30.21;96906.00;4997378;28;20061;-33
2021/09/29 10:51:15;;;;;;;3.67;1.10;;;;;;;27.11;30.84;96917.03;4996637;28;20040;-35
2021/09/29 11:08:20;;;;;;;3.00;1.35;;;;;;;27.22;31.51;96908.53;5000576;28;20109;-35
2021/09/29 11:29:53;;;;;;;2.28;0.90;;;;;;;27.29;32.01;96883.56;4998299;28;20043;-36
2021/09/29 11:35:04;;;;;;;5.28;1.30;;;;;;;27.30;32.22;96885.25;5002769;28;20032;-36
2021/09/29 12:11:19;;;;;;;4.68;1.00;;;;;;;27.42;32.72;96867.06;4940720;28;20580;-37
2021/09/29 12:14:07;;;;;;;2.65;0.70;;;;;;;27.43;32.73;96855.59;4971094;28;20059;-33
2021/09/29 12:16:36;;;;;;;2.92;1.00;;;;;;;27.44;32.72;96849.41;5000152;28;20053;-35
2021/09/29 12:19:03;;;;;;;3.42;1.02;;;;;;;27.44;31.74;96852.03;5007788;28;20040;-36
2021/09/29 12:21:58;;;;;;;3.78;1.00;;;;;;;27.45;31.21;96845.81;5008281;28;20460;-30
2021/09/29 12:24:28;;;;;;;3.78;0.90;;;;;;;27.43;30.78;96847.72;5009455;28;20041;-36
2021/09/29 12:26:55;;;;;;;2.95;0.68;;;;;;;27.42;30.64;96853.91;5002209;28;20451;-35
2021/09/29 12:30:05;;;;;;;4.15;1.00;;;;;;;27.39;30.25;96853.16;5001192;28;20140;-34
2021/09/29 12:35:36;;;;;;;4.07;0.93;;;;;;;27.35;29.51;96856.91;5000988;28;20030;-37
2021/09/29 12:37:56;;;;;;;2.47;0.80;;;;;;;27.33;29.40;96847.41;4997871;28;20041;-30
2021/09/29 12:40:23;;;;;;;4.07;1.02;;;;;;;27.30;29.28;96856.31;5009696;28;20450;-30
2021/09/29 12:42:55;;;;;;;4.57;1.08;;;;;;;27.28;29.52;96858.22;5003779;28;20126;-35
2021/09/29 12:45:33;;;;;;;2.83;1.20;;;;;;;27.24;29.88;96864.59;5012953;28;20072;-36
2021/09/29 12:48:00;;;;;;;3.10;1.10;;;;;;;27.24;29.90;96860.16;5010580;28;20025;-32
2021/09/29 12:50:36;;;;;;;7.93;1.50;;;;;;;27.22;29.98;96863.81;5008977;28;20471;-34
2021/09/29 12:53:16;;;;;;;4.90;1.48;;;;;;;27.18;29.89;96880.69;5007092;28;20140;-33
2021/09/29 12:55:45;;;;;;;3.13;1.30;;;;;;;27.19;30.19;96885.06;5003711;28;20033;-31
2021/09/29 12:58:11;;;;;;;7.00;1.50;;;;;;;27.12;30.46;96860.88;5006366;28;20533;-32
2021/09/29 13:00:36;;;;;;;2.88;1.10;;;;;;;27.13;30.64;96868.69;5009497;28;20022;-33
2021/09/29 13:03:05;;;;;;;4.15;1.20;;;;;;;27.12;30.92;96874.88;5003773;28;20037;-34
2021/09/29 13:05:30;;;;;;;4.05;1.15;;;;;;;27.11;30.85;96875.81;5008379;28;20034;-30
2021/09/29 13:07:56;;;;;;;6.03;1.17;;;;;;;27.11;30.87;96891.59;5000942;28;20431;-32
2021/09/29 13:10:21;;;;;;;5.00;1.10;;;;;;;27.10;30.77;96895.16;5006264;28;20029;-33
2021/09/29 13:12:51;;;;;;;3.13;1.10;;;;;;;27.10;30.99;96900.41;5005803;28;20480;-32
2021/09/29 13:15:16;;;;;;;3.13;1.05;;;;;;;27.11;31.06;96902.13;5009575;28;20026;-37
2021/09/29 13:17:44;;;;;;;4.75;1.40;;;;;;;27.13;31.36;96904.66;4999976;28;20554;-30
2021/09/29 13:20:15;;;;;;;4.60;1.15;;;;;;;27.17;31.60;96921.09;4999917;28;20025;-33
2021/09/29 13:22:41;;;;;;;5.00;1.60;;;;;;;27.18;31.88;96931.53;5005428;28;20026;-36
2021/09/29 13:38:20;;;;;;;4.68;1.48;;;;;;;27.33;32.46;96966.66;5005235;28;20025;-33
2021/09/29 13:40:46;;;;;;;3.58;1.48;;;;;;;27.35;32.46;96959.53;5008918;28;20503;-32
2021/09/29 13:43:11;;;;;;;4.03;1.10;;;;;;;27.35;32.70;96966.59;5010069;28;20206;-36
2021/09/29 13:45:37;;;;;;;5.80;1.42;;;;;;;27.34;32.69;96970.97;5009090;28;20025;-30
2021/09/29 13:48:03;;;;;;;5.90;1.40;;;;;;;27.37;32.75;96970.81;5005022;28;20029;-29
2021/09/29 13:50:29;;;;;;;3.22;1.20;;;;;;;27.38;32.84;96969.00;5007416;28;20040;-36
2021/09/29 13:52:54;;;;;;;2.40;0.77;;;;;;;27.40;32.83;96985.59;5007690;28;20036;-31
2021/09/29 13:55:22;;;;;;;3.78;1.10;;;;;;;27.41;32.95;96975.91;5010834;28;20029;-33
2021/09/29 14:30:49;;;;;;;1.95;1.20;;;;;;;27.46;32.89;97044.94;5008955;28;20449;-36
2021/09/29 14:32:56;;;;;;;2.22;0.90;;;;;;;27.47;32.98;97059.78;5004696;28;20590;-34
2021/09/29 14:35:21;;;;;;;1.77;0.70;;;;;;;27.46;32.94;97065.97;5004789;28;20476;-29
2021/09/29 14:37:48;;;;;;;2.75;1.02;;;;;;;27.45;33.02;97072.16;5005410;28;20030;-31